Time;durP1;ratioP1;P1;durP2;ratioP2;P2;SDS_P1;SDS_P2;PMS_P1;PMS_P2;Temp;Humidity;BMP_temperature;BMP_pressure;BME280_temperature;BME280_humidity;BME280_pressure;Samples;Min_cycle;Max_cycle;Signal;HPM_P1;HPM_P2
2022/06/22 00:01:52;;;;;;;9.93;3.52;;;;;;;15.88;95.49;98646.63;1818780;79;21719;-80
2022/06/22 00:05:02;;;;;;;;;;;;;;;15.82;96.20;98642.95;1820250;79;21533;-80
2022/06/22 00:08:11;;;;;;;5.87;3.10;;;;;;;15.81;96.74;98643.22;1819051;79;20190;-81
2022/06/22 00:11:21;;;;;;;9.83;3.27;;;;;;;15.80;97.16;98641.52;1818930;79;21157;-80
2022/06/22 00:14:30;;;;;;;;;;;;;;;15.83;97.27;98635.52;1824900;78;21203;-80
2022/06/22 00:17:46;;;;;;;5.37;2.90;;;;;;;15.90;97.11;98657.39;1825395;78;20200;-80
2022/06/22 00:20:58;;;;;;;8.28;3.20;;;;;;;15.97;97.01;98656.15;1789115;80;21193;-79
2022/06/22 00:24:06;;;;;;;4.92;2.75;;;;;;;16.05;96.75;98674.20;1780547;80;21228;-79
2022/06/22 00:27:28;;;;;;;4.37;2.33;;;;;;;16.12;96.53;98661.61;1788869;80;21861;-79
2022/06/22 00:30:38;;;;;;;5.10;2.17;;;;;;;16.19;96.02;98666.42;1750555;82;21204;-79
2022/06/22 00:33:44;;;;;;;4.72;2.22;;;;;;;16.24;95.46;98679.75;1777777;80;21188;-79
2022/06/22 00:37:27;;;;;;;16.82;2.92;;;;;;;16.28;95.05;98685.60;1777517;80;21182;-78
2022/06/22 00:40:32;;;;;;;7.62;3.25;;;;;;;16.30;95.09;98691.69;1775624;80;21827;-78
2022/06/22 00:43:40;;;;;;;6.60;2.85;;;;;;;16.27;95.95;98653.02;1782694;79;21823;-78
2022/06/22 00:46:51;;;;;;;7.40;2.33;;;;;;;16.29;96.54;98667.95;1809545;79;21762;-78
2022/06/22 00:49:56;;;;;;;6.47;2.58;;;;;;;16.30;97.24;98642.03;1809243;79;21168;-78
2022/06/22 00:53:27;;;;;;;8.30;2.75;;;;;;;16.28;97.41;98595.39;1808837;79;21791;-79
2022/06/22 00:56:43;;;;;;;4.80;2.42;;;;;;;16.29;97.61;98579.12;1808959;79;21176;-78
2022/06/22 01:00:13;;;;;;;4.58;1.90;;;;;;;16.31;97.73;98584.37;1807437;79;21200;-79
2022/06/22 01:03:32;;;;;;;6.47;1.95;;;;;;;16.35;97.72;98582.78;1809009;79;21802;-79
2022/06/22 01:06:54;;;;;;;6.40;1.95;;;;;;;16.38;97.79;98574.55;1809415;79;21866;-79
2022/06/22 01:10:08;;;;;;;2.52;2.00;;;;;;;16.38;97.94;98576.77;1807594;79;21454;-79
2022/06/22 01:13:37;;;;;;;18.37;2.40;;;;;;;16.40;98.23;98577.88;1767356;79;21759;-79
2022/06/22 01:16:45;;;;;;;5.53;1.67;;;;;;;16.42;98.59;98573.78;1782996;80;21196;-79
2022/06/22 01:20:13;;;;;;;2.58;1.50;;;;;;;16.46;98.54;98576.29;1782202;80;21201;-79
2022/06/22 01:23:40;;;;;;;4.05;1.57;;;;;;;16.52;98.23;98586.33;1749915;80;21185;-79
2022/06/22 01:27:33;;;;;;;3.92;1.75;;;;;;;16.53;98.17;98594.89;1782745;80;21454;-80
2022/06/22 01:30:48;;;;;;;3.02;1.72;;;;;;;16.57;98.59;98618.12;1776887;80;21850;-78
2022/06/22 01:33:55;;;;;;;3.50;1.80;;;;;;;16.60;98.69;98611.24;1777159;80;21196;-78
2022/06/22 01:37:01;;;;;;;4.33;1.87;;;;;;;16.56;98.54;98604.05;1777229;80;21180;-78
2022/06/22 01:40:20;;;;;;;2.75;1.70;;;;;;;16.55;98.39;98599.59;1778503;80;21644;-78
2022/06/22 01:43:57;;;;;;;5.75;1.55;;;;;;;16.56;98.53;98606.80;1777389;80;21178;-78
2022/06/22 01:47:52;;;;;;;4.33;1.70;;;;;;;16.58;98.98;98611.51;1778287;80;21174;-78
2022/06/22 01:51:24;;;;;;;4.17;1.70;;;;;;;16.59;99.16;98617.31;1777762;80;21170;-78
2022/06/22 01:54:35;;;;;;;3.58;1.80;;;;;;;16.60;99.38;98609.31;1774158;80;21331;-78
2022/06/22 01:57:54;;;;;;;3.80;1.80;;;;;;;16.61;99.24;98572.91;1776033;80;21256;-78
2022/06/22 02:01:15;;;;;;;3.27;1.77;;;;;;;16.65;98.82;98542.84;1807372;79;21256;-78
2022/06/22 02:04:41;;;;;;;4.42;1.60;;;;;;;16.64;98.63;98527.38;1807211;79;21173;-79
2022/06/22 02:07:53;;;;;;;4.72;1.90;;;;;;;16.61;98.49;98559.95;1805944;79;21848;-79
2022/06/22 02:11:09;;;;;;;6.75;1.95;;;;;;;16.65;98.21;98590.60;1807350;79;21165;-79
2022/06/22 02:14:30;;;;;;;5.70;1.60;;;;;;;16.61;98.24;98595.83;1792136;79;21196;-79
2022/06/22 02:17:35;;;;;;;5.03;1.70;;;;;;;16.57;98.62;98609.84;1776367;80;21228;-78
2022/06/22 02:20:44;;;;;;;5.80;1.98;;;;;;;16.53;98.81;98616.97;1777628;80;21240;-78
2022/06/22 02:23:49;;;;;;;3.35;2.02;;;;;;;16.50;98.76;98618.02;1778917;80;21168;-78
2022/06/22 02:27:05;;;;;;;6.97;2.00;;;;;;;16.43;98.47;98615.45;1777793;80;21180;-78
2022/06/22 02:30:10;;;;;;;3.70;1.95;;;;;;;16.41;98.49;98619.00;1783707;80;21212;-78
2022/06/22 02:33:16;;;;;;;3.40;1.82;;;;;;;16.43;98.79;98610.48;1785633;80;21125;-78
2022/06/22 02:36:22;;;;;;;6.37;2.42;;;;;;;16.46;99.00;98612.16;1784470;80;21571;-78
2022/06/22 02:39:30;;;;;;;2.35;1.77;;;;;;;16.51;98.84;98619.13;1785298;80;21243;-78
2022/06/22 02:45:54;;;;;;;4.20;2.20;;;;;;;16.57;98.93;98633.31;1766607;80;21261;-78
2022/06/22 02:49:04;;;;;;;3.12;2.00;;;;;;;16.55;99.05;98628.57;1745349;82;21213;-78
2022/06/22 02:52:11;;;;;;;3.33;2.15;;;;;;;16.57;99.06;98622.27;1747062;82;21230;-78
2022/06/22 02:55:23;;;;;;;7.45;2.08;;;;;;;16.59;98.73;98610.41;1761494;80;21188;-78
2022/06/22 02:58:34;;;;;;;5.00;2.20;;;;;;;16.64;98.72;98607.43;1777073;80;21794;-78
2022/06/22 03:01:41;;;;;;;3.92;2.10;;;;;;;16.59;98.37;98605.44;1749754;82;21168;-78
2022/06/22 03:04:47;;;;;;;3.50;1.95;;;;;;;16.63;98.22;98600.25;1778360;80;21197;-78
2022/06/22 03:07:58;;;;;;;4.75;2.37;;;;;;;16.65;98.33;98590.60;1748527;82;21213;-78
2022/06/22 03:11:11;;;;;;;4.58;2.12;;;;;;;16.73;98.20;98593.50;1776411;80;21189;-78
2022/06/22 03:15:04;;;;;;;5.85;2.08;;;;;;;16.87;98.14;98592.00;1748715;82;21188;-78
2022/06/22 03:18:11;;;;;;;2.67;1.87;;;;;;;17.33;98.38;98586.97;1777697;80;21719;-78
2022/06/22 03:21:20;;;;;;;5.50;2.00;;;;;;;18.02;96.31;98590.30;1748250;82;21196;-78
2022/06/22 03:24:40;;;;;;;4.05;2.00;;;;;;;18.38;93.00;98589.97;1777642;80;21192;-78
2022/06/22 03:27:51;;;;;;;3.08;1.80;;;;;;;18.51;90.07;98593.64;1748111;82;21196;-78
2022/06/22 03:31:11;;;;;;;2.75;2.17;;;;;;;18.51;88.62;98595.58;1776988;80;21220;-78
2022/06/22 03:34:20;;;;;;;4.25;2.17;;;;;;;18.47;87.67;98589.73;1748898;82;21240;-78
2022/06/22 03:37:33;;;;;;;3.87;2.02;;;;;;;18.43;86.88;98596.91;1776467;80;21172;-78
2022/06/22 03:40:58;;;;;;;3.33;2.00;;;;;;;18.33;86.46;98596.31;1748651;82;21193;-78
2022/06/22 03:44:13;;;;;;;3.40;2.37;;;;;;;18.24;86.55;98599.85;1776061;80;21188;-78
2022/06/22 03:47:36;;;;;;;5.08;2.20;;;;;;;18.16;86.30;98607.27;1762595;80;21213;-78
2022/06/22 03:51:00;;;;;;;3.90;2.25;;;;;;;18.07;86.31;98605.58;1778993;80;21257;-78
2022/06/22 03:54:16;;;;;;;6.62;3.08;;;;;;;18.10;86.05;98608.62;1778620;80;21181;-78
2022/06/22 03:57:23;;;;;;;3.67;2.47;;;;;;;18.20;85.54;98615.32;1777751;80;21298;-78
2022/06/22 04:00:28;;;;;;;2.75;2.33;;;;;;;18.36;85.26;98614.33;1779662;80;21201;-78
2022/06/22 04:03:34;;;;;;;9.43;2.33;;;;;;;18.46;84.47;98631.55;1778668;80;22437;-78
2022/06/22 04:06:44;;;;;;;7.12;2.10;;;;;;;18.53;84.28;98630.73;1778226;80;21757;-78
2022/06/22 04:09:59;;;;;;;4.12;2.40;;;;;;;18.66;83.58;98634.41;1778725;80;21570;-78
2022/06/22 04:13:05;;;;;;;3.33;2.50;;;;;;;18.75;82.86;98638.91;1777273;80;21244;-78
2022/06/22 04:16:18;;;;;;;6.78;2.60;;;;;;;18.88;82.34;98628.73;1778420;80;21295;-78
2022/06/22 04:19:39;;;;;;;4.03;2.67;;;;;;;18.95;82.12;98624.30;1775674;80;21207;-78
2022/06/22 04:22:47;;;;;;;4.25;2.55;;;;;;;19.03;81.05;98632.10;1801617;79;21787;-78
2022/06/22 04:25:52;;;;;;;3.95;2.85;;;;;;;19.10;79.40;98636.30;1753433;80;21273;-78
2022/06/22 04:29:07;;;;;;;5.55;2.55;;;;;;;19.12;77.96;98641.00;1797605;79;21743;-78
2022/06/22 04:32:32;;;;;;;6.53;2.98;;;;;;;19.18;78.31;98632.14;1757253;80;21795;-78
2022/06/22 04:35:58;;;;;;;7.67;3.15;;;;;;;19.30;75.95;98631.34;1776594;80;21208;-78
2022/06/22 04:39:10;;;;;;;4.83;2.50;;;;;;;19.39;74.38;98623.33;1749451;82;21177;-78
2022/06/22 04:42:15;;;;;;;4.20;3.05;;;;;;;19.36;73.11;98626.64;1775701;79;21193;-78
2022/06/22 04:45:36;;;;;;;8.25;3.00;;;;;;;19.34;73.04;98626.92;1780425;80;21260;-78
2022/06/22 04:48:50;;;;;;;5.22;2.77;;;;;;;19.38;72.42;98627.19;1808651;79;21274;-78
2022/06/22 04:52:00;;;;;;;4.72;2.83;;;;;;;19.44;73.20;98623.89;1807598;79;21252;-78
2022/06/22 04:55:08;;;;;;;6.80;2.83;;;;;;;19.61;73.26;98623.09;1801367;79;21153;-78
2022/06/22 04:58:34;;;;;;;4.60;3.15;;;;;;;19.84;71.93;98617.00;1759751;80;21201;-78
2022/06/22 05:02:04;;;;;;;5.33;2.50;;;;;;;20.01;69.61;98613.95;1765517;80;21601;-78
2022/06/22 05:05:14;;;;;;;4.00;2.50;;;;;;;20.13;69.40;98610.31;1774034;80;21169;-78
2022/06/22 05:08:37;;;;;;;7.80;2.58;;;;;;;20.20;67.92;98613.37;1771377;80;21260;-78
2022/06/22 05:11:52;;;;;;;4.00;2.70;;;;;;;20.23;68.14;98609.48;1790610;79;21185;-78
2022/06/22 05:14:57;;;;;;;8.43;2.58;;;;;;;20.38;67.72;98603.89;1780889;80;21243;-78
2022/06/22 05:18:05;;;;;;;4.28;2.33;;;;;;;20.58;67.24;98604.41;1776491;80;21901;-78
2022/06/22 05:21:47;;;;;;;10.08;3.10;;;;;;;20.80;66.53;98599.06;1775470;80;21184;-78
2022/06/22 05:24:56;;;;;;;5.47;2.60;;;;;;;20.97;65.38;98599.52;1768790;80;21259;-78
2022/06/22 05:28:15;;;;;;;5.47;2.42;;;;;;;21.13;63.94;98598.33;1791833;79;21566;-79
2022/06/22 05:31:30;;;;;;;5.67;2.30;;;;;;;21.17;63.31;98603.59;1765025;80;21181;-78
2022/06/22 05:34:41;;;;;;;9.93;2.52;;;;;;;21.19;63.43;98599.95;1794980;79;21165;-79
2022/06/22 05:37:50;;;;;;;5.22;2.08;;;;;;;21.28;62.22;98591.02;1786260;79;21739;-79
2022/06/22 05:40:49;;;;;;;2.55;1.87;;;;;;;21.25;60.40;98586.85;1768167;80;21219;-79
2022/06/22 05:43:57;;;;;;;8.93;2.40;;;;;;;21.27;60.68;98592.97;1759272;80;21801;-79
2022/06/22 05:47:05;;;;;;;5.22;2.37;;;;;;;21.36;60.62;98580.16;1787483;79;21169;-78
2022/06/22 05:50:33;;;;;;;11.50;2.62;;;;;;;21.45;59.14;98583.13;1748825;80;21233;-78
2022/06/22 05:54:08;;;;;;;6.50;2.15;;;;;;;21.51;57.03;98568.08;1751269;81;21201;-79
2022/06/22 05:57:36;;;;;;;2.83;1.87;;;;;;;21.53;55.98;98564.44;1773088;80;21166;-78
2022/06/22 06:00:54;;;;;;;4.80;1.85;;;;;;;21.53;54.35;98561.66;1750019;82;21201;-78
2022/06/22 06:04:40;;;;;;;3.25;1.40;;;;;;;21.61;55.17;98561.60;1766530;80;21780;-78
2022/06/22 06:08:02;;;;;;;6.47;1.87;;;;;;;21.69;54.30;98563.77;1720410;82;21765;-78
2022/06/22 06:11:07;;;;;;;3.02;1.70;;;;;;;21.73;53.33;98563.99;1750966;82;21342;-79
2022/06/22 06:14:17;;;;;;;2.33;1.98;;;;;;;21.78;53.45;98563.38;1762877;81;22220;-79
2022/06/22 06:17:42;;;;;;;4.58;1.65;;;;;;;21.85;53.44;98547.75;1756992;81;21859;-80
2022/06/22 06:20:49;;;;;;;11.45;2.45;;;;;;;21.94;53.70;98555.73;1770025;80;21275;-79
2022/06/22 06:24:05;;;;;;;7.53;2.37;;;;;;;22.14;52.57;98551.95;1749592;81;21445;-79
2022/06/22 06:27:36;;;;;;;7.47;1.75;;;;;;;22.29;53.34;98557.34;1749328;81;21847;-79
2022/06/22 06:30:49;;;;;;;6.67;2.58;;;;;;;22.37;53.34;98555.88;1733799;81;21186;-80
2022/06/22 06:33:55;;;;;;;3.30;1.62;;;;;;;22.55;52.86;98555.67;1756631;81;21586;-79
2022/06/22 06:37:23;;;;;;;4.90;1.60;;;;;;;22.66;52.03;98546.88;1737174;81;21188;-79
2022/06/22 06:40:31;;;;;;;5.70;1.45;;;;;;;22.82;49.93;98536.91;1781572;80;21813;-79
2022/06/22 06:44:10;;;;;;;4.15;1.50;;;;;;;22.83;47.12;98537.20;1780524;80;21179;-80
2022/06/22 06:47:28;;;;;;;12.20;1.85;;;;;;;22.89;47.72;98537.41;1783061;80;21707;-79
2022/06/22 06:50:47;;;;;;;3.98;1.60;;;;;;;22.91;45.25;98542.11;1769794;79;21811;-79
2022/06/22 06:54:06;;;;;;;3.95;1.30;;;;;;;22.87;45.90;98545.23;1786238;80;21192;-79
2022/06/22 06:57:26;;;;;;;3.47;1.37;;;;;;;23.00;44.80;98537.52;1769325;80;21176;-79
2022/06/22 07:00:31;;;;;;;5.05;1.37;;;;;;;23.08;44.29;98529.89;1782383;80;21228;-79
2022/06/22 07:03:45;;;;;;;2.22;1.25;;;;;;;23.12;43.53;98536.52;1797368;79;21275;-79
2022/06/22 07:06:52;;;;;;;4.00;1.30;;;;;;;23.08;42.39;98536.03;1771595;80;21201;-80
2022/06/22 07:09:52;;;;;;;4.97;1.15;;;;;;;23.01;39.94;98535.02;1794531;79;21723;-79
2022/06/22 07:13:08;;;;;;;3.15;1.15;;;;;;;22.93;40.01;98538.48;1804690;79;21177;-79
2022/06/22 07:16:19;;;;;;;4.28;1.00;;;;;;;22.84;39.56;98534.09;1795533;79;21176;-79
2022/06/22 07:19:33;;;;;;;7.22;1.42;;;;;;;22.77;39.66;98530.02;1798045;79;21755;-79
2022/06/22 07:23:01;;;;;;;7.05;1.10;;;;;;;22.75;40.86;98519.74;1803055;79;21532;-79
2022/06/22 07:26:11;;;;;;;4.20;1.07;;;;;;;22.82;41.69;98519.65;1783743;79;21208;-79
2022/06/22 07:29:34;;;;;;;6.33;1.00;;;;;;;23.05;41.41;98519.89;1753481;80;21193;-79
2022/06/22 07:32:52;;;;;;;2.37;0.90;;;;;;;23.19;40.91;98516.04;1765169;80;21209;-79
2022/06/22 07:36:04;;;;;;;4.92;1.00;;;;;;;23.41;40.23;98506.23;1765221;80;21752;-79
2022/06/22 07:39:11;;;;;;;2.65;1.37;;;;;;;23.60;39.61;98510.38;1771195;80;21181;-79
2022/06/22 07:41:59;;;;;;;5.10;1.15;;;;;;;23.73;40.30;98511.59;1760967;80;21180;-80
2022/06/22 07:44:51;;;;;;;5.12;1.22;;;;;;;23.88;39.56;98512.13;1769360;80;21260;-79
2022/06/22 07:47:57;;;;;;;2.30;1.05;;;;;;;23.92;39.56;98513.19;1770822;80;21208;-80
2022/06/22 07:51:00;;;;;;;2.45;1.02;;;;;;;23.87;36.43;98518.86;1770843;80;22437;-80
2022/06/22 07:54:23;;;;;;;3.22;0.85;;;;;;;23.77;37.75;98512.07;1743039;82;21192;-80
2022/06/22 07:57:51;;;;;;;2.33;1.00;;;;;;;23.85;36.19;98506.33;1745921;81;21169;-80
2022/06/22 08:01:00;;;;;;;5.55;0.90;;;;;;;23.88;36.90;98511.31;1777546;80;21623;-80
2022/06/22 08:04:26;;;;;;;6.42;0.90;;;;;;;23.91;36.07;98514.33;1756326;81;22100;-80
2022/06/22 08:07:35;;;;;;;4.75;0.90;;;;;;;23.91;36.03;98521.87;1753981;81;21174;-80
2022/06/22 08:10:53;;;;;;;2.17;1.10;;;;;;;24.13;37.36;98525.35;1757818;81;21240;-80
2022/06/22 08:14:09;;;;;;;4.25;1.00;;;;;;;24.42;36.03;98522.33;1763668;81;22270;-80
2022/06/22 08:17:22;;;;;;;2.17;0.90;;;;;;;24.61;35.69;98536.19;1748208;82;21176;-80
2022/06/22 08:20:31;;;;;;;7.87;1.20;;;;;;;24.92;35.06;98525.16;1745847;81;21271;-80
2022/06/22 08:23:39;;;;;;;2.02;0.88;;;;;;;25.17;35.46;98526.56;1762502;81;21177;-80
2022/06/22 08:26:45;;;;;;;2.10;0.90;;;;;;;25.30;34.55;98524.88;1753848;81;21763;-80
2022/06/22 08:29:54;;;;;;;4.75;1.05;;;;;;;25.30;34.33;98521.50;1747311;81;21590;-80
2022/06/22 08:33:06;;;;;;;2.45;1.00;;;;;;;25.15;34.38;98521.30;1763728;81;21229;-80
2022/06/22 08:36:27;;;;;;;2.95;0.90;;;;;;;24.95;34.81;98515.58;1767953;81;21236;-79
2022/06/22 08:39:37;;;;;;;1.45;1.00;;;;;;;24.77;33.13;98515.72;1746740;81;21176;-80
2022/06/22 08:43:21;;;;;;;3.33;0.90;;;;;;;24.47;33.23;98520.25;1773516;79;21247;-79
2022/06/22 08:46:55;;;;;;;2.10;1.00;;;;;;;24.35;34.06;98521.29;1745441;81;21157;-79
2022/06/22 08:50:23;;;;;;;6.33;1.42;;;;;;;24.35;34.49;98524.08;1750140;81;21233;-78
2022/06/22 08:54:07;;;;;;;5.03;1.20;;;;;;;24.34;34.33;98528.59;1728748;80;21951;-78
2022/06/22 08:57:41;;;;;;;5.87;1.10;;;;;;;24.33;34.25;98529.73;1763045;80;21745;-78
2022/06/22 09:00:57;;;;;;;1.92;0.93;;;;;;;24.32;34.68;98528.06;1745317;81;21335;-78
2022/06/22 09:04:38;;;;;;;2.10;1.20;;;;;;;24.49;35.66;98519.92;1749340;81;21204;-78
2022/06/22 09:08:05;;;;;;;1.65;1.30;;;;;;;24.54;33.50;98526.80;1752429;81;21255;-78
2022/06/22 09:11:31;;;;;;;10.10;1.20;;;;;;;24.49;33.83;98532.50;1755991;81;21272;-78
2022/06/22 09:14:49;;;;;;;3.22;1.60;;;;;;;24.51;33.74;98528.81;1744967;81;21244;-78
2022/06/22 09:18:30;;;;;;;6.58;1.50;;;;;;;24.46;33.59;98534.51;1755113;81;21216;-78
2022/06/22 09:22:09;;;;;;;4.95;1.60;;;;;;;24.35;34.19;98533.86;1741669;81;21241;-78
2022/06/22 09:25:19;;;;;;;9.98;2.00;;;;;;;24.35;34.57;98524.66;1738377;81;21185;-78
2022/06/22 09:28:52;;;;;;;5.28;1.72;;;;;;;24.50;34.97;98520.75;1750499;81;21723;-78
2022/06/22 09:32:24;;;;;;;6.83;1.77;;;;;;;24.76;35.12;98520.48;1745463;81;21248;-78
2022/06/22 09:35:54;;;;;;;5.08;1.20;;;;;;;25.23;35.29;98521.13;1753253;81;21164;-78
2022/06/22 09:39:24;;;;;;;6.85;0.90;;;;;;;25.55;34.36;98522.87;1749780;81;21201;-78
2022/06/22 09:43:05;;;;;;;4.15;0.90;;;;;;;25.51;31.43;98519.62;1753076;81;21196;-78
2022/06/22 09:46:43;;;;;;;1.62;0.80;;;;;;;25.12;31.66;98530.31;1737464;82;21212;-79
2022/06/22 09:50:22;;;;;;;6.30;0.80;;;;;;;24.79;32.04;98519.84;1732839;82;21198;-78
2022/06/22 09:53:55;;;;;;;6.10;1.87;;;;;;;24.48;32.20;98518.28;1737860;80;21231;-78
2022/06/22 09:57:12;;;;;;;2.30;0.78;;;;;;;24.46;32.83;98524.73;1739109;80;21749;-78
2022/06/22 10:00:25;;;;;;;8.98;0.90;;;;;;;24.59;33.31;98524.47;1746122;80;21161;-78
2022/06/22 10:04:15;;;;;;;6.03;0.98;;;;;;;24.80;33.76;98529.91;1744984;80;21231;-78
2022/06/22 10:08:08;;;;;;;3.83;0.68;;;;;;;25.13;33.12;98519.40;1732022;80;21516;-78
2022/06/22 10:11:37;;;;;;;9.03;0.90;;;;;;;25.33;31.34;98537.67;1741074;80;21192;-78
2022/06/22 10:15:14;;;;;;;6.80;1.20;;;;;;;25.33;31.02;98530.67;1721558;82;21179;-78
2022/06/22 10:18:46;;;;;;;2.35;1.27;;;;;;;25.22;31.24;98542.69;1733177;80;21655;-77
2022/06/22 10:22:25;;;;;;;2.30;1.15;;;;;;;24.73;31.93;98535.08;1735228;80;21200;-78
2022/06/22 10:26:01;;;;;;;6.42;0.70;;;;;;;24.21;32.82;98549.22;1749662;81;22332;-78
2022/06/22 10:29:47;;;;;;;1.75;0.72;;;;;;;23.93;33.39;98543.32;1739766;81;21195;-78
2022/06/22 10:33:24;;;;;;;5.35;0.80;;;;;;;23.42;34.79;98554.73;1728613;80;21204;-79
2022/06/22 10:36:48;;;;;;;;;;;;;;;22.98;36.14;98566.85;1722773;83;21248;-79
2022/06/22 10:48:36;;;;;;;4.05;0.80;;;;;;;22.26;37.83;98571.05;1751097;81;21172;-78
2022/06/22 10:51:40;;;;;;;4.97;0.90;;;;;;;22.12;38.92;98568.95;1755483;81;21136;-78
2022/06/22 10:55:18;;;;;;;4.40;0.80;;;;;;;21.74;39.20;98586.52;1739784;81;21166;-78
2022/06/22 10:58:43;;;;;;;2.37;0.70;;;;;;;21.43;40.25;98589.55;1760399;79;21200;-78
2022/06/22 11:02:35;;;;;;;0.80;0.55;;;;;;;21.20;41.03;98582.72;1763510;80;21482;-78
2022/06/22 11:05:55;;;;;;;3.27;0.70;;;;;;;20.98;41.79;98592.01;1737593;80;21185;-78
2022/06/22 11:09:27;;;;;;;4.43;1.10;;;;;;;20.82;42.44;98591.27;1748785;80;21210;-78
2022/06/22 11:12:55;;;;;;;2.15;1.07;;;;;;;20.81;42.57;98591.00;1769553;80;21169;-78
2022/06/22 11:16:21;;;;;;;8.55;0.98;;;;;;;20.67;42.82;98591.61;1757385;79;21941;-79
2022/06/22 11:19:37;;;;;;;2.25;1.10;;;;;;;20.72;43.07;98587.14;1786028;79;21170;-78
2022/06/22 11:23:00;;;;;;;2.85;1.12;;;;;;;20.78;43.24;98586.00;1780646;79;21192;-79
2022/06/22 11:34:22;;;;;;;3.42;1.17;;;;;;;21.00;42.84;98589.79;1767057;80;21194;-78
2022/06/22 11:37:49;;;;;;;1.95;0.90;;;;;;;21.17;42.79;98573.55;1765903;79;21203;-79
2022/06/22 11:40:59;;;;;;;2.45;1.10;;;;;;;21.38;42.14;98565.95;1795025;79;21190;-79
2022/06/22 11:44:17;;;;;;;6.60;1.10;;;;;;;21.63;42.30;98568.52;1795470;79;21170;-78
2022/06/22 11:47:42;;;;;;;2.77;1.00;;;;;;;21.83;41.59;98564.75;1788976;79;21172;-78
2022/06/22 11:51:11;;;;;;;7.12;1.15;;;;;;;21.98;41.61;98555.42;1791542;79;21188;-79
2022/06/22 11:54:52;;;;;;;5.25;1.00;;;;;;;22.26;41.41;98556.56;1766828;81;21154;-80
2022/06/22 11:58:48;;;;;;;3.67;1.00;;;;;;;22.64;41.87;98551.92;1782803;80;21219;-78
2022/06/22 12:02:38;;;;;;;5.08;1.40;;;;;;;23.04;40.39;98555.31;1801332;78;21215;-79
2022/06/22 12:05:52;;;;;;;7.67;1.20;;;;;;;23.30;39.92;98541.84;1764303;79;21182;-79
2022/06/22 12:09:32;;;;;;;3.75;1.27;;;;;;;23.42;38.54;98538.57;1808114;78;21203;-79
2022/06/22 12:13:06;;;;;;;3.30;1.10;;;;;;;23.50;38.21;98537.89;1757858;79;21231;-79
2022/06/22 12:16:32;;;;;;;3.27;1.00;;;;;;;23.56;38.25;98539.45;1798111;78;21258;-79
2022/06/22 12:20:02;;;;;;;6.67;0.90;;;;;;;23.69;38.67;98528.94;1777658;79;21197;-79
2022/06/22 12:23:40;;;;;;;3.90;0.95;;;;;;;23.88;38.20;98526.66;1748723;79;21831;-79
2022/06/22 12:27:24;;;;;;;4.15;0.98;;;;;;;24.06;37.29;98537.52;1780371;79;21900;-80
2022/06/22 12:30:51;;;;;;;3.12;1.00;;;;;;;24.12;36.38;98530.69;1765712;80;21330;-78
2022/06/22 12:35:00;;;;;;;2.58;0.80;;;;;;;23.92;36.08;98540.27;1731075;80;21230;-80
2022/06/22 12:38:06;;;;;;;1.25;0.50;;;;;;;23.49;37.46;98568.32;1842886;76;22783;-79
2022/06/22 12:41:19;;;;;;;1.67;0.55;;;;;;;22.70;39.98;98574.98;1815884;77;21184;-81
2022/06/22 12:45:08;;;;;;;1.67;0.60;;;;;;;21.52;43.25;98588.38;1814502;78;21184;-80
2022/06/22 12:48:40;;;;;;;4.30;0.75;;;;;;;20.55;47.59;98601.36;1811960;77;21173;-81
2022/06/22 12:52:01;;;;;;;2.12;0.62;;;;;;;19.62;53.48;98610.36;1813868;79;21514;-81
2022/06/22 12:55:12;;;;;;;3.92;0.70;;;;;;;19.08;59.46;98608.56;1829301;77;21247;-80
2022/06/22 12:58:26;;;;;;;4.80;0.60;;;;;;;18.79;62.12;98601.27;1823599;77;21219;-80
2022/06/22 13:01:31;;;;;;;3.70;0.65;;;;;;;18.74;63.26;98590.17;1815578;77;21204;-80
2022/06/22 13:04:40;;;;;;;3.67;0.80;;;;;;;18.83;63.22;98587.99;1843796;77;21208;-79
2022/06/22 13:07:51;;;;;;;4.10;0.90;;;;;;;19.09;62.83;98583.34;1778802;80;21200;-80
2022/06/22 13:11:00;;;;;;;1.10;0.60;;;;;;;19.36;63.96;98569.81;1759478;80;21628;-80
2022/06/22 13:14:38;;;;;;;3.75;0.80;;;;;;;19.65;62.19;98557.09;1749160;80;21185;-81
2022/06/22 13:18:01;;;;;;;3.45;0.88;;;;;;;19.86;61.11;98551.55;1752594;80;21189;-80
2022/06/22 13:21:22;;;;;;;3.62;0.90;;;;;;;20.07;61.94;98550.38;1793047;79;21184;-80
2022/06/22 13:24:55;;;;;;;2.90;0.90;;;;;;;20.23;60.25;98550.33;1763752;80;21185;-81
2022/06/22 13:28:18;;;;;;;5.60;0.95;;;;;;;20.35;58.56;98546.70;1779624;79;21193;-80
2022/06/22 13:31:30;;;;;;;6.85;1.00;;;;;;;20.49;56.67;98541.41;1765953;80;21633;-81
2022/06/22 13:34:44;;;;;;;7.20;0.95;;;;;;;20.53;54.04;98542.50;1766603;81;21244;-80
2022/06/22 13:38:05;;;;;;;3.12;0.60;;;;;;;20.55;54.29;98553.59;1752976;81;21221;-81
2022/06/22 13:41:14;;;;;;;;;;;;;;;20.52;52.11;98551.40;1750773;82;21204;-80
2022/06/22 13:44:36;;;;;;;2.75;0.90;;;;;;;20.49;51.98;98551.13;1755848;80;20693;-80
2022/06/22 13:48:25;;;;;;;5.47;0.80;;;;;;;20.46;50.93;98556.64;1745136;81;21209;-81
2022/06/22 13:52:10;;;;;;;3.00;0.47;;;;;;;20.46;51.69;98558.03;1733144;81;21728;-80
2022/06/22 13:55:25;;;;;;;1.02;0.50;;;;;;;20.53;51.71;98557.22;1732259;82;21225;-81
2022/06/22 13:58:41;;;;;;;2.90;0.60;;;;;;;20.58;50.64;98562.75;1810968;78;21234;-80
2022/06/22 14:01:53;;;;;;;1.42;0.65;;;;;;;20.70;50.19;98562.97;1800894;78;21185;-80
2022/06/22 14:05:12;;;;;;;3.33;0.62;;;;;;;20.76;49.82;98563.23;1798205;78;21236;-80
2022/06/22 14:08:47;;;;;;;1.45;0.50;;;;;;;20.84;49.33;98561.23;1724678;81;21245;-80
2022/06/22 14:12:20;;;;;;;1.47;0.50;;;;;;;20.88;48.56;98558.16;1732347;82;21872;-80
2022/06/22 14:15:34;;;;;;;1.77;0.50;;;;;;;20.92;49.00;98562.03;1801876;78;21207;-81
2022/06/22 14:18:57;;;;;;;3.15;0.78;;;;;;;20.94;49.12;98565.38;1824723;78;21188;-79
2022/06/22 14:22:12;;;;;;;1.47;0.50;;;;;;;20.95;48.76;98567.03;1805217;78;21170;-81
2022/06/22 14:25:50;;;;;;;0.93;0.50;;;;;;;20.97;48.69;98570.34;1809372;78;21213;-79
2022/06/22 14:29:39;;;;;;;1.75;0.30;;;;;;;20.88;48.31;98560.37;1800528;78;21189;-79
2022/06/22 14:32:55;;;;;;;2.25;0.62;;;;;;;20.83;48.61;98558.19;1819610;78;21193;-80
2022/06/22 14:36:11;;;;;;;1.20;0.60;;;;;;;20.66;48.76;98559.39;1803696;78;21721;-81
2022/06/22 14:39:43;;;;;;;0.62;0.40;;;;;;;20.51;49.14;98554.44;1820217;78;21275;-79
2022/06/22 14:43:00;;;;;;;10.80;1.07;;;;;;;20.30;49.68;98566.16;1808426;78;21204;-80
2022/06/22 14:46:18;;;;;;;10.38;2.20;;;;;;;20.12;52.40;98574.52;1809032;78;22538;-80
2022/06/22 14:49:37;;;;;;;9.55;1.35;;;;;;;19.86;61.25;98569.02;1812382;78;21196;-80
2022/06/22 14:53:08;;;;;;;5.53;1.30;;;;;;;19.13;66.33;98573.38;1754785;81;21735;-81
2022/06/22 14:56:23;;;;;;;10.53;1.32;;;;;;;18.37;70.14;98571.15;1716029;81;21201;-81
2022/06/22 14:59:48;;;;;;;8.05;0.85;;;;;;;17.98;74.07;98555.44;1760889;81;21197;-80
2022/06/22 15:03:21;;;;;;;10.70;1.50;;;;;;;17.79;76.57;98555.04;1748140;81;21232;-81
2022/06/22 15:06:55;;;;;;;5.80;1.90;;;;;;;17.70;79.85;98555.77;1744054;81;21195;-81
2022/06/22 15:10:15;;;;;;;6.60;1.72;;;;;;;17.60;81.89;98557.36;1771165;79;21159;-80
2022/06/22 15:13:51;;;;;;;6.30;1.65;;;;;;;17.49;82.54;98563.88;1719222;81;21189;-81
2022/06/22 15:17:09;;;;;;;5.80;1.10;;;;;;;17.46;82.48;98558.90;1752776;81;21177;-81
2022/06/22 15:20:49;;;;;;;6.20;1.45;;;;;;;17.48;83.24;98566.37;1771533;79;21146;-81
2022/06/22 15:24:16;;;;;;;2.37;0.82;;;;;;;17.51;82.70;98574.69;1770353;81;21186;-80
2022/06/22 15:27:46;;;;;;;3.55;0.98;;;;;;;17.57;82.04;98588.28;1770927;79;21190;-81
2022/06/22 15:31:02;;;;;;;8.85;1.07;;;;;;;17.58;81.67;98587.18;1763517;79;21196;-79
2022/06/22 15:34:24;;;;;;;1.37;0.57;;;;;;;17.62;79.94;98604.91;1754471;81;21185;-80
2022/06/22 15:37:46;;;;;;;1.17;0.53;;;;;;;17.60;73.40;98589.15;1760497;81;21248;-80
2022/06/22 15:41:01;;;;;;;2.58;0.85;;;;;;;17.37;70.32;98597.23;1745193;79;21253;-80
2022/06/22 15:44:40;;;;;;;6.17;0.70;;;;;;;17.04;68.73;98605.19;1804812;78;21228;-81
2022/06/22 15:47:56;;;;;;;1.80;0.50;;;;;;;16.74;68.87;98593.78;1787024;78;21197;-81
2022/06/22 15:51:00;;;;;;;3.42;0.90;;;;;;;16.47;68.98;98585.44;1748543;81;21728;-81
2022/06/22 15:54:16;;;;;;;6.58;0.60;;;;;;;16.28;69.85;98581.60;1801661;78;21763;-81
2022/06/22 15:57:55;;;;;;;2.67;0.65;;;;;;;16.13;71.15;98565.36;1800643;79;21168;-81
2022/06/22 16:01:25;;;;;;;1.40;0.50;;;;;;;16.05;71.48;98554.25;1804677;79;21193;-81
2022/06/22 16:04:47;;;;;;;4.05;0.42;;;;;;;16.04;72.24;98560.31;1784429;79;21181;-81